sensor_id;sensor_type;location;lat;lon;timestamp;pressure;altitude;pressure_sealevel;temperature;humidity
57572;BME280;44459;43.522;24.470;2022-12-18T00:00:05;101124.38;;;4.89;100.00
57572;BME280;44459;43.522;24.470;2022-12-18T00:02:30;101135.91;;;4.94;100.00
57572;BME280;44459;43.522;24.470;2022-12-18T00:04:59;101133.38;;;4.96;100.00
57572;BME280;44459;43.522;24.470;2022-12-18T00:07:24;101137.00;;;4.99;100.00
57572;BME280;44459;43.522;24.470;2022-12-18T00:09:50;101137.75;;;4.97;100.00
57572;BME280;44459;43.522;24.470;2022-12-18T00:12:15;101156.19;;;5.00;100.00
57572;BME280;44459;43.522;24.470;2022-12-18T00:14:43;101144.84;;;4.99;100.00
57572;BME280;44459;43.522;24.470;2022-12-18T00:17:09;101149.19;;;4.99;100.00
57572;BME280;44459;43.522;24.470;2022-12-18T00:19:34;101155.31;;;4.99;100.00
57572;BME280;44459;43.522;24.470;2022-12-18T00:21:59;101153.66;;;5.01;100.00
57572;BME280;44459;43.522;24.470;2022-12-18T00:24:25;101154.59;;;5.03;100.00
57572;BME280;44459;43.522;24.470;2022-12-18T00:26:50;101163.28;;;5.02;100.00
57572;BME280;44459;43.522;24.470;2022-12-18T00:29:16;101165.78;;;4.99;100.00
57572;BME280;44459;43.522;24.470;2022-12-18T00:31:42;101177.31;;;5.04;100.00
57572;BME280;44459;43.522;24.470;2022-12-18T00:34:12;101180.72;;;5.02;100.00
57572;BME280;44459;43.522;24.470;2022-12-18T00:36:39;101199.94;;;5.02;100.00
57572;BME280;44459;43.522;24.470;2022-12-18T00:39:05;101200.19;;;5.08;100.00
57572;BME280;44459;43.522;24.470;2022-12-18T00:41:31;101201.28;;;5.14;100.00
57572;BME280;44459;43.522;24.470;2022-12-18T00:44:17;101200.44;;;5.15;100.00
57572;BME280;44459;43.522;24.470;2022-12-18T00:46:43;101210.22;;;5.19;100.00
57572;BME280;44459;43.522;24.470;2022-12-18T00:49:12;101208.50;;;5.19;100.00
57572;BME280;44459;43.522;24.470;2022-12-18T00:51:37;101219.66;;;5.15;100.00
57572;BME280;44459;43.522;24.470;2022-12-18T00:54:03;101217.81;;;5.13;100.00
57572;BME280;44459;43.522;24.470;2022-12-18T00:56:28;101229.78;;;5.07;100.00
57572;BME280;44459;43.522;24.470;2022-12-18T00:58:54;101214.94;;;5.06;100.00
57572;BME280;44459;43.522;24.470;2022-12-18T01:01:19;101226.09;;;5.02;100.00
57572;BME280;44459;43.522;24.470;2022-12-18T01:03:45;101228.03;;;5.06;100.00
57572;BME280;44459;43.522;24.470;2022-12-18T01:06:13;101232.28;;;5.04;100.00
57572;BME280;44459;43.522;24.470;2022-12-18T01:08:39;101234.13;;;5.07;100.00
57572;BME280;44459;43.522;24.470;2022-12-18T01:11:19;101240.94;;;5.03;100.00
57572;BME280;44459;43.522;24.470;2022-12-18T01:13:44;101243.38;;;4.99;100.00
57572;BME280;44459;43.522;24.470;2022-12-18T01:16:14;101240.94;;;5.03;100.00
57572;BME280;44459;43.522;24.470;2022-12-18T01:18:41;101251.34;;;5.02;100.00
57572;BME280;44459;43.522;24.470;2022-12-18T01:21:08;101246.56;;;4.92;100.00
57572;BME280;44459;43.522;24.470;2022-12-18T01:23:34;101254.75;;;4.99;100.00
57572;BME280;44459;43.522;24.470;2022-12-18T01:26:08;101250.31;;;4.98;100.00
57572;BME280;44459;43.522;24.470;2022-12-18T01:28:33;101261.75;;;5.00;99.77
57572;BME280;44459;43.522;24.470;2022-12-18T01:31:16;101255.69;;;5.01;100.00
57572;BME280;44459;43.522;24.470;2022-12-18T01:33:43;101258.09;;;4.97;100.00
57572;BME280;44459;43.522;24.470;2022-12-18T01:36:15;101257.97;;;4.94;99.46
57572;BME280;44459;43.522;24.470;2022-12-18T01:38:41;101261.06;;;4.85;98.55
57572;BME280;44459;43.522;24.470;2022-12-18T01:41:06;101255.53;;;4.79;98.22
57572;BME280;44459;43.522;24.470;2022-12-18T01:43:53;101258.88;;;4.75;99.64
57572;BME280;44459;43.522;24.470;2022-12-18T01:46:21;101264.06;;;4.56;99.27
57572;BME280;44459;43.522;24.470;2022-12-18T01:48:57;101269.06;;;4.51;99.66
57572;BME280;44459;43.522;24.470;2022-12-18T01:51:23;101269.91;;;4.50;99.75
57572;BME280;44459;43.522;24.470;2022-12-18T01:53:49;101276.84;;;4.50;100.00
57572;BME280;44459;43.522;24.470;2022-12-18T01:56:16;101265.94;;;4.41;100.00
57572;BME280;44459;43.522;24.470;2022-12-18T01:59:02;101264.91;;;4.37;100.00
57572;BME280;44459;43.522;24.470;2022-12-18T02:01:30;101260.59;;;4.38;100.00
57572;BME280;44459;43.522;24.470;2022-12-18T02:06:45;101268.97;;;4.31;100.00
57572;BME280;44459;43.522;24.470;2022-12-18T02:09:19;101270.47;;;4.26;100.00
57572;BME280;44459;43.522;24.470;2022-12-18T02:12:00;101282.56;;;4.24;100.00
57572;BME280;44459;43.522;24.470;2022-12-18T02:14:39;101290.09;;;4.18;100.00
57572;BME280;44459;43.522;24.470;2022-12-18T02:17:16;101289.28;;;4.19;100.00
57572;BME280;44459;43.522;24.470;2022-12-18T02:20:02;101286.53;;;4.16;100.00
57572;BME280;44459;43.522;24.470;2022-12-18T02:23:03;101280.94;;;4.08;100.00
57572;BME280;44459;43.522;24.470;2022-12-18T02:28:32;101292.50;;;3.95;100.00
57572;BME280;44459;43.522;24.470;2022-12-18T02:31:01;101296.75;;;3.93;100.00
57572;BME280;44459;43.522;24.470;2022-12-18T02:33:30;101300.34;;;3.95;100.00
57572;BME280;44459;43.522;24.470;2022-12-18T02:35:57;101308.75;;;3.90;100.00
57572;BME280;44459;43.522;24.470;2022-12-18T02:38:25;101304.13;;;3.84;100.00
57572;BME280;44459;43.522;24.470;2022-12-18T02:40:51;101310.97;;;3.82;100.00
57572;BME280;44459;43.522;24.470;2022-12-18T02:43:18;101314.09;;;3.75;100.00
57572;BME280;44459;43.522;24.470;2022-12-18T02:45:56;101326.44;;;3.78;100.00
57572;BME280;44459;43.522;24.470;2022-12-18T02:48:29;101315.00;;;3.76;100.00
57572;BME280;44459;43.522;24.470;2022-12-18T02:51:08;101331.81;;;3.81;100.00
57572;BME280;44459;43.522;24.470;2022-12-18T02:53:46;101333.38;;;3.77;100.00
57572;BME280;44459;43.522;24.470;2022-12-18T02:56:23;101335.88;;;3.76;100.00
57572;BME280;44459;43.522;24.470;2022-12-18T02:59:02;101332.38;;;3.75;100.00
57572;BME280;44459;43.522;24.470;2022-12-18T03:01:45;101328.16;;;3.77;100.00
57572;BME280;44459;43.522;24.470;2022-12-18T03:04:33;101324.63;;;3.77;100.00
57572;BME280;44459;43.522;24.470;2022-12-18T03:07:14;101325.28;;;3.73;100.00
57572;BME280;44459;43.522;24.470;2022-12-18T03:09:43;101326.03;;;3.70;100.00
57572;BME280;44459;43.522;24.470;2022-12-18T03:12:32;101332.22;;;3.72;100.00
57572;BME280;44459;43.522;24.470;2022-12-18T03:15:04;101337.28;;;3.69;100.00
57572;BME280;44459;43.522;24.470;2022-12-18T03:17:33;101344.97;;;3.66;100.00
57572;BME280;44459;43.522;24.470;2022-12-18T03:20:10;101338.78;;;3.64;100.00
57572;BME280;44459;43.522;24.470;2022-12-18T03:22:38;101333.31;;;3.60;100.00
57572;BME280;44459;43.522;24.470;2022-12-18T03:25:07;101341.16;;;3.60;100.00
57572;BME280;44459;43.522;24.470;2022-12-18T03:27:37;101354.66;;;3.69;100.00
57572;BME280;44459;43.522;24.470;2022-12-18T03:30:12;101355.81;;;3.74;100.00
57572;BME280;44459;43.522;24.470;2022-12-18T03:32:44;101356.47;;;3.70;100.00
57572;BME280;44459;43.522;24.470;2022-12-18T03:35:13;101371.19;;;3.68;100.00
57572;BME280;44459;43.522;24.470;2022-12-18T03:37:42;101375.56;;;3.69;100.00
57572;BME280;44459;43.522;24.470;2022-12-18T03:40:08;101362.84;;;3.59;100.00
57572;BME280;44459;43.522;24.470;2022-12-18T03:42:52;101359.19;;;3.55;100.00
57572;BME280;44459;43.522;24.470;2022-12-18T03:45:27;101373.88;;;3.53;100.00
57572;BME280;44459;43.522;24.470;2022-12-18T03:48:07;101373.13;;;3.55;100.00
57572;BME280;44459;43.522;24.470;2022-12-18T03:55:37;101372.03;;;3.50;100.00
57572;BME280;44459;43.522;24.470;2022-12-18T03:58:05;101375.44;;;3.49;100.00
57572;BME280;44459;43.522;24.470;2022-12-18T04:00:33;101369.22;;;3.47;100.00
57572;BME280;44459;43.522;24.470;2022-12-18T04:03:01;101383.31;;;3.51;100.00
57572;BME280;44459;43.522;24.470;2022-12-18T04:05:28;101383.16;;;3.48;100.00
57572;BME280;44459;43.522;24.470;2022-12-18T04:07:56;101391.00;;;3.48;100.00
57572;BME280;44459;43.522;24.470;2022-12-18T04:10:22;101389.22;;;3.47;100.00
57572;BME280;44459;43.522;24.470;2022-12-18T04:12:47;101402.09;;;3.44;100.00
57572;BME280;44459;43.522;24.470;2022-12-18T04:15:13;101401.59;;;3.51;100.00
57572;BME280;44459;43.522;24.470;2022-12-18T04:17:46;101412.94;;;3.51;100.00
57572;BME280;44459;43.522;24.470;2022-12-18T04:20:13;101424.38;;;3.53;100.00
57572;BME280;44459;43.522;24.470;2022-12-18T04:22:38;101438.41;;;3.55;100.00
57572;BME280;44459;43.522;24.470;2022-12-18T04:25:04;101433.28;;;3.57;100.00
57572;BME280;44459;43.522;24.470;2022-12-18T04:27:29;101445.72;;;3.63;100.00
57572;BME280;44459;43.522;24.470;2022-12-18T04:29:55;101451.13;;;3.66;100.00
57572;BME280;44459;43.522;24.470;2022-12-18T04:32:20;101448.66;;;3.69;100.00
57572;BME280;44459;43.522;24.470;2022-12-18T04:34:46;101452.34;;;3.72;100.00
57572;BME280;44459;43.522;24.470;2022-12-18T04:37:11;101457.66;;;3.74;100.00
57572;BME280;44459;43.522;24.470;2022-12-18T04:39:37;101452.50;;;3.75;99.98
57572;BME280;44459;43.522;24.470;2022-12-18T04:42:02;101460.41;;;3.77;100.00
57572;BME280;44459;43.522;24.470;2022-12-18T04:44:27;101463.13;;;3.78;100.00
57572;BME280;44459;43.522;24.470;2022-12-18T04:46:53;101465.63;;;3.77;100.00
57572;BME280;44459;43.522;24.470;2022-12-18T04:49:18;101460.25;;;3.74;100.00
57572;BME280;44459;43.522;24.470;2022-12-18T04:51:44;101467.19;;;3.73;100.00
57572;BME280;44459;43.522;24.470;2022-12-18T04:54:09;101471.59;;;3.74;100.00
57572;BME280;44459;43.522;24.470;2022-12-18T04:56:35;101484.66;;;3.74;100.00
57572;BME280;44459;43.522;24.470;2022-12-18T04:59:00;101485.16;;;3.67;100.00
57572;BME280;44459;43.522;24.470;2022-12-18T05:01:25;101496.88;;;3.59;100.00
57572;BME280;44459;43.522;24.470;2022-12-18T05:03:51;101498.59;;;3.59;100.00
57572;BME280;44459;43.522;24.470;2022-12-18T05:06:17;101495.66;;;3.52;100.00
57572;BME280;44459;43.522;24.470;2022-12-18T05:08:42;101490.28;;;3.49;100.00
57572;BME280;44459;43.522;24.470;2022-12-18T05:11:11;101486.59;;;3.46;100.00
57572;BME280;44459;43.522;24.470;2022-12-18T05:13:37;101494.59;;;3.49;100.00
57572;BME280;44459;43.522;24.470;2022-12-18T05:16:03;101499.00;;;3.50;100.00
57572;BME280;44459;43.522;24.470;2022-12-18T05:18:29;101504.94;;;3.47;100.00
57572;BME280;44459;43.522;24.470;2022-12-18T05:20:55;101500.63;;;3.48;100.00
57572;BME280;44459;43.522;24.470;2022-12-18T05:23:22;101518.25;;;3.52;100.00
57572;BME280;44459;43.522;24.470;2022-12-18T05:25:56;101532.28;;;3.54;100.00
57572;BME280;44459;43.522;24.470;2022-12-18T05:28:23;101523.16;;;3.46;100.00
57572;BME280;44459;43.522;24.470;2022-12-18T05:30:54;101519.63;;;3.45;100.00
57572;BME280;44459;43.522;24.470;2022-12-18T05:33:22;101522.13;;;3.44;100.00
57572;BME280;44459;43.522;24.470;2022-12-18T05:35:55;101521.44;;;3.46;100.00
57572;BME280;44459;43.522;24.470;2022-12-18T05:38:22;101528.38;;;3.46;100.00
57572;BME280;44459;43.522;24.470;2022-12-18T05:40:48;101532.78;;;3.47;100.00
57572;BME280;44459;43.522;24.470;2022-12-18T05:43:15;101540.50;;;3.45;100.00
57572;BME280;44459;43.522;24.470;2022-12-18T05:45:41;101536.34;;;3.49;100.00
57572;BME280;44459;43.522;24.470;2022-12-18T05:48:07;101548.59;;;3.50;100.00
57572;BME280;44459;43.522;24.470;2022-12-18T05:50:40;101544.09;;;3.47;100.00
57572;BME280;44459;43.522;24.470;2022-12-18T05:53:06;101548.50;;;3.48;100.00
57572;BME280;44459;43.522;24.470;2022-12-18T05:55:33;101545.00;;;3.48;100.00
57572;BME280;44459;43.522;24.470;2022-12-18T05:57:59;101553.00;;;3.51;100.00
57572;BME280;44459;43.522;24.470;2022-12-18T06:00:25;101550.38;;;3.51;100.00
57572;BME280;44459;43.522;24.470;2022-12-18T06:02:50;101552.66;;;3.45;100.00
57572;BME280;44459;43.522;24.470;2022-12-18T06:05:16;101549.06;;;3.43;100.00
57572;BME280;44459;43.522;24.470;2022-12-18T06:07:41;101557.63;;;3.40;100.00
57572;BME280;44459;43.522;24.470;2022-12-18T06:10:07;101561.06;;;3.39;100.00
57572;BME280;44459;43.522;24.470;2022-12-18T06:12:32;101568.06;;;3.40;100.00
57572;BME280;44459;43.522;24.470;2022-12-18T06:15:01;101566.00;;;3.35;100.00
57572;BME280;44459;43.522;24.470;2022-12-18T06:17:33;101572.13;;;3.35;100.00
57572;BME280;44459;43.522;24.470;2022-12-18T06:19:59;101574.75;;;3.35;100.00
57572;BME280;44459;43.522;24.470;2022-12-18T06:22:24;101579.97;;;3.35;100.00
57572;BME280;44459;43.522;24.470;2022-12-18T06:24:51;101575.81;;;3.39;100.00
57572;BME280;44459;43.522;24.470;2022-12-18T06:27:16;101596.13;;;3.44;100.00
57572;BME280;44459;43.522;24.470;2022-12-18T06:29:42;101590.91;;;3.44;100.00
57572;BME280;44459;43.522;24.470;2022-12-18T06:32:07;101601.34;;;3.44;100.00
57572;BME280;44459;43.522;24.470;2022-12-18T06:34:34;101597.84;;;3.44;100.00
57572;BME280;44459;43.522;24.470;2022-12-18T06:36:59;101605.75;;;3.45;100.00
57572;BME280;44459;43.522;24.470;2022-12-18T06:39:27;101607.91;;;3.52;100.00
57572;BME280;44459;43.522;24.470;2022-12-18T06:41:53;101614.84;;;3.52;100.00
57572;BME280;44459;43.522;24.470;2022-12-18T06:44:18;101614.03;;;3.53;100.00
57572;BME280;44459;43.522;24.470;2022-12-18T06:46:44;101623.63;;;3.54;100.00
57572;BME280;44459;43.522;24.470;2022-12-18T06:49:09;101626.50;;;3.59;100.00
57572;BME280;44459;43.522;24.470;2022-12-18T06:51:35;101633.06;;;3.67;100.00
57572;BME280;44459;43.522;24.470;2022-12-18T06:54:01;101633.97;;;3.67;100.00
57572;BME280;44459;43.522;24.470;2022-12-18T06:56:26;101628.13;;;3.71;100.00
57572;BME280;44459;43.522;24.470;2022-12-18T06:58:52;101636.34;;;3.79;100.00
57572;BME280;44459;43.522;24.470;2022-12-18T07:01:18;101625.75;;;3.76;100.00
57572;BME280;44459;43.522;24.470;2022-12-18T07:03:43;101633.84;;;3.80;100.00
57572;BME280;44459;43.522;24.470;2022-12-18T07:06:17;101635.16;;;3.88;100.00
57572;BME280;44459;43.522;24.470;2022-12-18T07:08:44;101637.03;;;3.91;100.00
57572;BME280;44459;43.522;24.470;2022-12-18T07:11:09;101645.22;;;3.97;100.00
57572;BME280;44459;43.522;24.470;2022-12-18T07:13:35;101655.13;;;4.02;100.00
57572;BME280;44459;43.522;24.470;2022-12-18T07:16:20;101657.06;;;4.06;100.00
57572;BME280;44459;43.522;24.470;2022-12-18T07:18:45;101661.91;;;4.15;100.00
57572;BME280;44459;43.522;24.470;2022-12-18T07:21:16;101657.63;;;4.17;99.79
57572;BME280;44459;43.522;24.470;2022-12-18T07:23:42;101658.47;;;4.16;99.85
57572;BME280;44459;43.522;24.470;2022-12-18T07:26:12;101666.63;;;4.22;99.17
57572;BME280;44459;43.522;24.470;2022-12-18T07:28:38;101673.72;;;4.25;98.69
57572;BME280;44459;43.522;24.470;2022-12-18T07:31:08;101666.69;;;4.24;99.09
57572;BME280;44459;43.522;24.470;2022-12-18T07:33:34;101672.59;;;4.20;99.22
57572;BME280;44459;43.522;24.470;2022-12-18T07:36:03;101674.47;;;4.22;99.45
57572;BME280;44459;43.522;24.470;2022-12-18T07:38:30;101688.94;;;4.32;99.97
57572;BME280;44459;43.522;24.470;2022-12-18T07:41:07;101676.78;;;4.32;98.99
57572;BME280;44459;43.522;24.470;2022-12-18T07:43:33;101682.59;;;4.27;99.43
57572;BME280;44459;43.522;24.470;2022-12-18T07:45:59;101685.34;;;4.30;100.00
57572;BME280;44459;43.522;24.470;2022-12-18T07:48:25;101673.09;;;4.29;99.61
57572;BME280;44459;43.522;24.470;2022-12-18T07:50:50;101673.84;;;4.42;98.45
57572;BME280;44459;43.522;24.470;2022-12-18T07:53:15;101684.53;;;4.47;98.42
57572;BME280;44459;43.522;24.470;2022-12-18T07:55:41;101684.44;;;4.45;98.03
57572;BME280;44459;43.522;24.470;2022-12-18T07:58:07;101682.09;;;4.50;98.57
57572;BME280;44459;43.522;24.470;2022-12-18T08:00:34;101679.94;;;4.59;98.56
57572;BME280;44459;43.522;24.470;2022-12-18T08:02:59;101681.59;;;4.73;97.29
57572;BME280;44459;43.522;24.470;2022-12-18T08:05:25;101682.78;;;4.80;96.32
57572;BME280;44459;43.522;24.470;2022-12-18T08:07:50;101700.03;;;4.76;97.08
57572;BME280;44459;43.522;24.470;2022-12-18T08:10:16;101699.81;;;4.72;96.84
57572;BME280;44459;43.522;24.470;2022-12-18T08:12:41;101704.56;;;4.79;94.52
57572;BME280;44459;43.522;24.470;2022-12-18T08:15:08;101704.53;;;4.63;93.45
57572;BME280;44459;43.522;24.470;2022-12-18T08:17:34;101715.25;;;4.67;93.38
57572;BME280;44459;43.522;24.470;2022-12-18T08:19:59;101715.09;;;4.64;94.31
57572;BME280;44459;43.522;24.470;2022-12-18T08:22:25;101718.03;;;4.70;93.49
57572;BME280;44459;43.522;24.470;2022-12-18T08:24:50;101719.00;;;4.72;92.41
57572;BME280;44459;43.522;24.470;2022-12-18T08:27:16;101732.03;;;4.71;93.05
57572;BME280;44459;43.522;24.470;2022-12-18T08:29:41;101717.06;;;4.68;92.09
57572;BME280;44459;43.522;24.470;2022-12-18T08:32:07;101723.44;;;4.73;90.43
57572;BME280;44459;43.522;24.470;2022-12-18T08:34:32;101727.50;;;4.84;92.10
57572;BME280;44459;43.522;24.470;2022-12-18T08:36:58;101729.22;;;4.84;90.42
57572;BME280;44459;43.522;24.470;2022-12-18T08:39:23;101720.31;;;4.80;89.48
57572;BME280;44459;43.522;24.470;2022-12-18T08:41:48;101720.38;;;4.98;90.13
57572;BME280;44459;43.522;24.470;2022-12-18T08:44:34;101716.22;;;5.01;89.12
57572;BME280;44459;43.522;24.470;2022-12-18T08:47:02;101718.78;;;5.18;91.60
57572;BME280;44459;43.522;24.470;2022-12-18T08:49:27;101716.66;;;5.27;88.50
57572;BME280;44459;43.522;24.470;2022-12-18T08:51:55;101711.50;;;5.28;86.79
57572;BME280;44459;43.522;24.470;2022-12-18T08:54:20;101723.09;;;5.33;85.62
57572;BME280;44459;43.522;24.470;2022-12-18T08:56:45;101711.88;;;5.36;84.76
57572;BME280;44459;43.522;24.470;2022-12-18T08:59:11;101713.94;;;5.41;84.69
57572;BME280;44459;43.522;24.470;2022-12-18T09:01:36;101719.81;;;5.37;84.61
57572;BME280;44459;43.522;24.470;2022-12-18T09:04:02;101708.50;;;5.38;85.78
57572;BME280;44459;43.522;24.470;2022-12-18T09:06:27;101716.47;;;5.40;84.70
57572;BME280;44459;43.522;24.470;2022-12-18T09:08:53;101711.31;;;5.41;84.91
57572;BME280;44459;43.522;24.470;2022-12-18T09:11:21;101705.75;;;5.35;84.54
57572;BME280;44459;43.522;24.470;2022-12-18T09:14:06;101709.91;;;5.32;86.51
57572;BME280;44459;43.522;24.470;2022-12-18T09:16:32;101714.00;;;5.43;85.74
57572;BME280;44459;43.522;24.470;2022-12-18T09:19:02;101722.09;;;5.47;84.63
57572;BME280;44459;43.522;24.470;2022-12-18T09:21:31;101723.00;;;5.48;85.88
57572;BME280;44459;43.522;24.470;2022-12-18T09:23:57;101723.19;;;5.52;85.00
57572;BME280;44459;43.522;24.470;2022-12-18T09:26:24;101734.06;;;5.60;84.89
57572;BME280;44459;43.522;24.470;2022-12-18T09:28:50;101730.34;;;5.39;84.20
57572;BME280;44459;43.522;24.470;2022-12-18T09:31:17;101749.69;;;5.41;83.79
57572;BME280;44459;43.522;24.470;2022-12-18T09:33:43;101740.47;;;5.49;85.16
57572;BME280;44459;43.522;24.470;2022-12-18T09:36:11;101744.28;;;5.55;84.73
57572;BME280;44459;43.522;24.470;2022-12-18T09:38:38;101748.72;;;5.56;84.39
57572;BME280;44459;43.522;24.470;2022-12-18T09:44:22;101748.16;;;5.62;85.10
57572;BME280;44459;43.522;24.470;2022-12-18T09:46:58;101751.88;;;5.67;85.88
57572;BME280;44459;43.522;24.470;2022-12-18T09:49:29;101755.78;;;5.75;85.43
57572;BME280;44459;43.522;24.470;2022-12-18T09:54:38;101760.38;;;5.79;84.32
57572;BME280;44459;43.522;24.470;2022-12-18T09:57:28;101766.28;;;5.75;85.06
57572;BME280;44459;43.522;24.470;2022-12-18T10:00:24;101766.41;;;5.78;84.28
57572;BME280;44459;43.522;24.470;2022-12-18T10:02:49;101757.66;;;5.78;83.61
57572;BME280;44459;43.522;24.470;2022-12-18T10:05:23;101755.28;;;5.82;84.38
57572;BME280;44459;43.522;24.470;2022-12-18T10:08:01;101752.22;;;5.91;83.41
57572;BME280;44459;43.522;24.470;2022-12-18T10:10:38;101758.78;;;5.83;84.06
57572;BME280;44459;43.522;24.470;2022-12-18T10:16:14;101764.75;;;5.80;83.56
57572;BME280;44459;43.522;24.470;2022-12-18T10:18:58;101768.59;;;5.87;83.38
57572;BME280;44459;43.522;24.470;2022-12-18T10:21:32;101756.78;;;5.95;82.83
57572;BME280;44459;43.522;24.470;2022-12-18T10:26:48;101759.66;;;5.83;82.58
57572;BME280;44459;43.522;24.470;2022-12-18T10:29:15;101764.28;;;5.87;77.68
57572;BME280;44459;43.522;24.470;2022-12-18T10:31:41;101760.75;;;5.87;77.71
57572;BME280;44459;43.522;24.470;2022-12-18T10:34:25;101761.66;;;5.87;76.81
57572;BME280;44459;43.522;24.470;2022-12-18T10:36:50;101751.91;;;5.85;74.34
57572;BME280;44459;43.522;24.470;2022-12-18T10:39:22;101753.03;;;5.72;74.48
57572;BME280;44459;43.522;24.470;2022-12-18T10:41:51;101756.75;;;5.77;74.65
57572;BME280;44459;43.522;24.470;2022-12-18T10:44:23;101754.88;;;5.75;74.32
57572;BME280;44459;43.522;24.470;2022-12-18T10:47:03;101750.16;;;5.68;74.01
57572;BME280;44459;43.522;24.470;2022-12-18T10:49:31;101756.22;;;5.67;73.86
57572;BME280;44459;43.522;24.470;2022-12-18T10:52:14;101748.97;;;5.61;74.33
57572;BME280;44459;43.522;24.470;2022-12-18T10:54:48;101764.94;;;5.49;74.86
57572;BME280;44459;43.522;24.470;2022-12-18T10:59:54;101763.53;;;5.56;75.66
57572;BME280;44459;43.522;24.470;2022-12-18T11:02:36;101769.63;;;5.55;76.36
57572;BME280;44459;43.522;24.470;2022-12-18T11:05:02;101776.56;;;5.54;76.95
57572;BME280;44459;43.522;24.470;2022-12-18T11:07:48;101770.56;;;5.57;77.43
57572;BME280;44459;43.522;24.470;2022-12-18T11:10:17;101772.59;;;5.63;75.58
57572;BME280;44459;43.522;24.470;2022-12-18T11:12:43;101766.53;;;5.64;76.83
57572;BME280;44459;43.522;24.470;2022-12-18T11:15:20;101763.47;;;5.54;76.24
57572;BME280;44459;43.522;24.470;2022-12-18T11:17:48;101762.41;;;5.51;75.06
57572;BME280;44459;43.522;24.470;2022-12-18T11:20:38;101759.47;;;5.45;73.96
57572;BME280;44459;43.522;24.470;2022-12-18T11:23:10;101762.09;;;5.45;75.67
57572;BME280;44459;43.522;24.470;2022-12-18T11:25:37;101768.06;;;5.42;75.86
57572;BME280;44459;43.522;24.470;2022-12-18T11:28:04;101759.84;;;5.52;77.31
57572;BME280;44459;43.522;24.470;2022-12-18T11:30:32;101764.38;;;5.55;77.31
57572;BME280;44459;43.522;24.470;2022-12-18T11:33:10;101772.00;;;5.50;77.33
57572;BME280;44459;43.522;24.470;2022-12-18T11:38:17;101778.13;;;5.51;76.39
57572;BME280;44459;43.522;24.470;2022-12-18T11:40:47;101782.38;;;5.49;76.18
57572;BME280;44459;43.522;24.470;2022-12-18T11:43:26;101775.66;;;5.54;76.70
57572;BME280;44459;43.522;24.470;2022-12-18T11:45:59;101769.81;;;5.59;77.83
57572;BME280;44459;43.522;24.470;2022-12-18T11:48:30;101777.47;;;5.55;78.10
57572;BME280;44459;43.522;24.470;2022-12-18T11:51:03;101781.41;;;5.47;77.80
57572;BME280;44459;43.522;24.470;2022-12-18T11:53:30;101776.06;;;5.45;78.43
57572;BME280;44459;43.522;24.470;2022-12-18T12:28:14;101780.63;;;5.66;77.19
57572;BME280;44459;43.522;24.470;2022-12-18T12:33:36;101793.25;;;5.56;78.22
57572;BME280;44459;43.522;24.470;2022-12-18T12:38:44;101794.91;;;5.54;74.11
57572;BME280;44459;43.522;24.470;2022-12-18T12:41:17;101793.19;;;5.55;72.81
57572;BME280;44459;43.522;24.470;2022-12-18T12:44:07;101803.06;;;5.61;73.18
57572;BME280;44459;43.522;24.470;2022-12-18T12:46:37;101790.13;;;5.64;72.23
57572;BME280;44459;43.522;24.470;2022-12-18T12:49:13;101789.38;;;5.66;73.38
57572;BME280;44459;43.522;24.470;2022-12-18T12:51:46;101799.25;;;5.54;75.40
57572;BME280;44459;43.522;24.470;2022-12-18T12:54:24;101806.59;;;5.45;75.26
57572;BME280;44459;43.522;24.470;2022-12-18T12:56:58;101801.38;;;5.45;76.32
57572;BME280;44459;43.522;24.470;2022-12-18T13:07:26;101807.13;;;5.38;76.79
57572;BME280;44459;43.522;24.470;2022-12-18T13:23:00;101829.31;;;5.12;75.91
57572;BME280;44459;43.522;24.470;2022-12-18T13:25:36;101829.06;;;5.07;74.85
57572;BME280;44459;43.522;24.470;2022-12-18T13:28:08;101832.41;;;4.89;74.43
57572;BME280;44459;43.522;24.470;2022-12-18T13:38:34;101853.66;;;4.79;76.87
57572;BME280;44459;43.522;24.470;2022-12-18T13:44:11;101850.19;;;4.64;77.24
57572;BME280;44459;43.522;24.470;2022-12-18T13:46:45;101864.03;;;4.77;76.87
57572;BME280;44459;43.522;24.470;2022-12-18T13:51:42;101864.19;;;4.80;77.75
57572;BME280;44459;43.522;24.470;2022-12-18T13:54:54;101861.78;;;4.69;77.77
57572;BME280;44459;43.522;24.470;2022-12-18T13:57:33;101864.66;;;4.73;77.74
57572;BME280;44459;43.522;24.470;2022-12-18T14:02:45;101873.84;;;4.81;78.25
57572;BME280;44459;43.522;24.470;2022-12-18T14:05:30;101874.00;;;4.84;79.10
57572;BME280;44459;43.522;24.470;2022-12-18T14:08:01;101882.13;;;4.89;79.69
57572;BME280;44459;43.522;24.470;2022-12-18T14:10:30;101886.94;;;4.81;79.07
57572;BME280;44459;43.522;24.470;2022-12-18T14:12:55;101869.25;;;4.77;78.68
57572;BME280;44459;43.522;24.470;2022-12-18T14:20:41;101904.78;;;4.57;80.71
57572;BME280;44459;43.522;24.470;2022-12-18T14:25:56;101924.97;;;4.60;80.34
57572;BME280;44459;43.522;24.470;2022-12-18T14:28:22;101927.41;;;4.57;79.76
57572;BME280;44459;43.522;24.470;2022-12-18T14:30:47;101929.22;;;4.58;80.61
57572;BME280;44459;43.522;24.470;2022-12-18T14:33:16;101932.47;;;4.54;80.98
57572;BME280;44459;43.522;24.470;2022-12-18T14:38:39;101928.31;;;4.43;80.28
57572;BME280;44459;43.522;24.470;2022-12-18T14:41:06;101931.47;;;4.37;79.26
57572;BME280;44459;43.522;24.470;2022-12-18T14:43:36;101925.81;;;4.30;79.78
57572;BME280;44459;43.522;24.470;2022-12-18T14:46:03;101938.97;;;4.31;79.47
57572;BME280;44459;43.522;24.470;2022-12-18T14:48:42;101942.41;;;4.16;80.05
57572;BME280;44459;43.522;24.470;2022-12-18T14:53:43;101945.25;;;4.20;81.10